This is the latest recevied weather packets stored in our database for station/object KT2UU-13. If no packets are shown the sender has not sent any weather packets the latest 1 day(s).
| Time | Temp. | Humidity | Pressure | Rain* | Wind** | Luminosity | Snow |
|---|---|---|---|---|---|---|---|
| 1778100005 | 25° C | 80% | 1013.3 hPa | 0 mm | - | - | - |
| 1778098187 | 24.44° C | 79% | 1013.4 hPa | 0 mm | - | - | - |
| 1778096671 | 25° C | 78% | 1013.7 hPa | 0 mm | - | - | - |
| 1778096065 | 24.44° C | 80% | 1013.6 hPa | 0 mm | - | - | - |
| 1778094244 | 24.44° C | 81% | 1014.3 hPa | 0 mm | - | - | - |
| 1778093941 | 23.89° C | 81% | 1014.1 hPa | 0 mm | - | - | - |
| 1778093638 | 23.89° C | 83% | 1014.3 hPa | 0 mm | - | - | - |
| 1778093330 | 23.33° C | 83% | 1014.6 hPa | 0 mm | - | - | - |
| 1778092724 | 23.89° C | 83% | 1014.2 hPa | 0 mm | - | - | - |
| 1778092111 | 23.33° C | 83% | 1014.8 hPa | 0 mm | - | - | - |
| 1778091808 | 23.33° C | 84% | 1014.9 hPa | 0 mm | - | - | - |
| 1778091203 | 23.33° C | 84% | 1015.2 hPa | 0 mm | - | - | - |
| 1778090900 | 23.33° C | 85% | 1015.5 hPa | 0 mm | - | - | - |
| 1778090596 | 23.33° C | 84% | 1015.5 hPa | 0 mm | - | - | - |
| 1778089384 | 23.89° C | 82% | 1015.3 hPa | 0 mm | - | - | - |
| 1778088778 | 23.89° C | 84% | 1015.5 hPa | 0 mm | - | - | - |
| 1778088475 | 23.33° C | 85% | 1015.3 hPa | 0 mm | - | - | - |
| 1778087566 | 22.22° C | 87% | 1015.2 hPa | 0 mm | - | - | - |
| 1778086960 | 21.67° C | 89% | 1014.9 hPa | 0 mm | - | - | - |
| 1778084232 | 20.56° C | 93% | 1015.5 hPa | 0 mm | - | - | - |
| 1778081586 | 19.44° C | 97% | 1015.1 hPa | 0 mm | - | - | - |
| 1778081283 | 18.89° C | 97% | 1014.9 hPa | 0 mm | - | - | - |
| 1778080980 | 18.89° C | 97% | 1015.6 hPa | 0 mm | - | - | - |
| 1778079466 | 18.89° C | 96% | 1017.1 hPa | 0 mm | - | - | - |
| 1778078860 | 18.89° C | 95% | 1016.3 hPa | 1.78 mm | - | - | - |
* Rain latest hour (hover to see other rain measurements)
** Current wind speed in m/s (hover to see current wind gust speed)